Time;durP1;ratioP1;P1;durP2;ratioP2;P2;SDS_P1;SDS_P2;PMS_P1;PMS_P2;Temp;Humidity;BMP_temperature;BMP_pressure;BME280_temperature;BME280_humidity;BME280_pressure;Samples;Min_cycle;Max_cycle;Signal;HPM_P1;HPM_P2
2021/06/19 00:00:03;;;;;;;9.65;7.10;;;;;;;20.12;100.00;95789.59;1036140;28;20024;-51
2021/06/19 00:00:34;;;;;;;9.93;6.55;;;;;;;20.18;100.00;95786.28;1035558;28;20006;-51
2021/06/19 00:01:05;;;;;;;10.15;6.97;;;;;;;20.21;100.00;95785.91;1033382;28;20109;-50
2021/06/19 00:01:36;;;;;;;8.68;6.72;;;;;;;20.20;100.00;95773.63;1040009;28;20006;-50
2021/06/19 00:02:07;;;;;;;9.80;7.30;;;;;;;20.27;100.00;95782.59;1039904;28;20075;-50
2021/06/19 00:02:38;;;;;;;11.85;7.28;;;;;;;20.33;100.00;95784.56;1044032;28;20021;-50
2021/06/19 00:03:09;;;;;;;9.55;6.22;;;;;;;20.34;100.00;95778.22;1048003;28;20115;-49
2021/06/19 00:03:40;;;;;;;10.45;6.95;;;;;;;20.34;100.00;95788.03;1047283;28;20434;-50
2021/06/19 00:04:11;;;;;;;12.05;7.35;;;;;;;20.37;100.00;95785.88;1043614;28;20024;-51
2021/06/19 00:04:42;;;;;;;11.25;7.15;;;;;;;20.37;100.00;95793.84;1043742;28;20025;-49
2021/06/19 00:05:13;;;;;;;12.18;6.68;;;;;;;20.35;100.00;95787.06;1039670;28;20454;-51
2021/06/19 00:05:45;;;;;;;9.95;6.82;;;;;;;20.38;100.00;95787.53;1040340;28;20033;-50
2021/06/19 00:06:16;;;;;;;10.40;7.30;;;;;;;20.41;100.00;95791.66;1043648;28;20475;-50
2021/06/19 00:06:48;;;;;;;11.93;6.95;;;;;;;20.45;100.00;95787.66;1040239;28;20009;-50
2021/06/19 00:07:18;;;;;;;11.27;6.68;;;;;;;20.45;100.00;95790.31;1039586;28;20009;-50
2021/06/19 00:07:49;;;;;;;10.73;7.53;;;;;;;20.43;100.00;95789.66;1035832;28;20018;-50
2021/06/19 00:08:23;;;;;;;7.72;6.65;;;;;;;20.46;100.00;95791.13;1039857;28;20040;-49
2021/06/19 00:08:53;;;;;;;10.95;7.07;;;;;;;20.46;100.00;95788.47;1043741;28;20040;-50
2021/06/19 00:09:24;;;;;;;12.95;6.93;;;;;;;20.48;100.00;95795.31;1044271;28;20354;-49
2021/06/19 00:09:55;;;;;;;12.45;7.65;;;;;;;20.45;100.00;95795.63;1048211;28;20033;-50
2021/06/19 00:10:26;;;;;;;11.52;7.68;;;;;;;20.43;100.00;95802.16;1048141;28;20036;-50
2021/06/19 00:10:57;;;;;;;9.77;7.10;;;;;;;20.45;100.00;95798.31;1047884;28;20033;-50
2021/06/19 00:11:28;;;;;;;14.98;7.70;;;;;;;20.47;100.00;95806.13;1043775;28;20013;-48
2021/06/19 00:12:00;;;;;;;9.48;7.57;;;;;;;20.50;100.00;95803.13;1043745;28;20471;-50
2021/06/19 00:12:31;;;;;;;12.55;7.93;;;;;;;20.50;100.00;95803.13;1043970;28;20092;-50
2021/06/19 00:13:02;;;;;;;12.38;8.15;;;;;;;20.47;100.00;95801.63;1047889;28;20063;-50
2021/06/19 00:13:32;;;;;;;12.77;7.63;;;;;;;20.46;100.00;95801.78;1047321;28;20020;-49
2021/06/19 00:14:03;;;;;;;13.57;8.93;;;;;;;20.48;100.00;95803.28;1043189;28;20017;-51
2021/06/19 00:14:34;;;;;;;14.40;7.80;;;;;;;20.47;100.00;95804.28;1039510;28;20055;-51
2021/06/19 00:15:09;;;;;;;8.73;7.45;;;;;;;20.43;100.00;95799.50;1039746;28;20097;-49
2021/06/19 00:15:40;;;;;;;11.50;7.68;;;;;;;20.45;100.00;95798.31;1040384;28;20390;-48
2021/06/19 00:16:11;;;;;;;11.35;7.55;;;;;;;20.43;100.00;95802.97;1044458;28;20009;-49
2021/06/19 00:16:41;;;;;;;11.52;7.72;;;;;;;20.41;100.00;95804.16;1047826;28;20077;-49
2021/06/19 00:17:13;;;;;;;13.13;8.07;;;;;;;20.36;100.00;95799.34;1043881;28;20576;-49
2021/06/19 00:17:43;;;;;;;12.15;7.97;;;;;;;20.32;100.00;95803.34;1047816;28;20025;-50
2021/06/19 00:18:14;;;;;;;10.15;7.68;;;;;;;20.26;100.00;95804.03;1047946;28;20020;-50
2021/06/19 00:18:45;;;;;;;10.30;7.97;;;;;;;20.30;100.00;95813.34;1044018;28;20024;-50
2021/06/19 00:19:16;;;;;;;10.43;8.40;;;;;;;20.30;100.00;95806.19;1047829;28;20023;-50
2021/06/19 00:19:47;;;;;;;12.18;8.05;;;;;;;20.26;100.00;95807.53;1047752;28;20016;-50
2021/06/19 00:20:20;;;;;;;15.32;8.75;;;;;;;20.26;100.00;95810.19;1047784;28;20023;-50
2021/06/19 00:20:51;;;;;;;12.15;8.13;;;;;;;20.21;100.00;95807.19;1047691;28;20020;-49
2021/06/19 00:21:22;;;;;;;11.25;8.15;;;;;;;20.19;100.00;95810.03;1047860;28;20386;-50
2021/06/19 00:21:53;;;;;;;11.63;8.38;;;;;;;20.20;100.00;95805.56;1047840;28;20012;-49
2021/06/19 00:22:23;;;;;;;13.18;6.88;;;;;;;20.19;100.00;95806.53;1047778;28;20020;-51
2021/06/19 00:22:55;;;;;;;11.38;7.82;;;;;;;20.19;100.00;95801.22;1047837;28;20486;-49
2021/06/19 00:23:26;;;;;;;12.05;7.80;;;;;;;20.23;100.00;95799.06;1047640;28;20359;-51
2021/06/19 00:23:56;;;;;;;11.48;7.18;;;;;;;20.23;100.00;95805.19;1047405;28;20028;-49
2021/06/19 00:24:27;;;;;;;10.02;7.82;;;;;;;20.21;100.00;95801.88;1047889;28;20048;-50
2021/06/19 00:24:58;;;;;;;9.43;8.10;;;;;;;20.22;100.00;95803.56;1043684;28;20503;-50
2021/06/19 00:25:29;;;;;;;13.25;7.55;;;;;;;20.22;100.00;95808.06;1035396;28;20026;-50
2021/06/19 00:26:00;;;;;;;9.05;7.53;;;;;;;20.22;100.00;95808.06;1035860;28;20033;-52
2021/06/19 00:26:31;;;;;;;10.73;7.63;;;;;;;20.24;100.00;95800.72;1035904;28;20018;-50
2021/06/19 00:27:02;;;;;;;13.45;7.05;;;;;;;20.24;100.00;95808.72;1036673;28;20021;-49
2021/06/19 00:27:32;;;;;;;12.00;6.82;;;;;;;20.23;100.00;95810.50;1040351;28;20041;-50
2021/06/19 00:28:03;;;;;;;10.02;6.78;;;;;;;20.30;100.00;95816.81;1040617;28;20506;-49
2021/06/19 00:28:34;;;;;;;12.18;7.22;;;;;;;20.29;100.00;95811.66;1044751;28;20029;-50
2021/06/19 00:29:05;;;;;;;11.57;6.55;;;;;;;20.32;100.00;95814.00;1048529;28;20023;-49
2021/06/19 00:29:36;;;;;;;10.90;6.50;;;;;;;20.34;100.00;95814.66;1048699;28;20023;-51
2021/06/19 00:30:08;;;;;;;9.52;6.60;;;;;;;20.35;100.00;95814.47;1048564;28;20081;-50
2021/06/19 00:30:39;;;;;;;12.27;7.10;;;;;;;20.35;100.00;95811.81;1044552;28;20020;-49
2021/06/19 00:31:10;;;;;;;21.02;7.03;;;;;;;20.29;100.00;95814.31;1044291;28;20502;-51
2021/06/19 00:31:42;;;;;;;11.63;6.68;;;;;;;20.32;100.00;95819.31;1036648;28;20121;-48
2021/06/19 00:32:13;;;;;;;12.10;6.75;;;;;;;20.24;100.00;95820.16;1040721;28;20014;-50
2021/06/19 00:32:44;;;;;;;11.45;6.22;;;;;;;20.19;100.00;95822.50;1040303;28;20396;-49
2021/06/19 00:33:15;;;;;;;9.77;6.72;;;;;;;20.23;100.00;95821.16;1041193;28;20483;-50
2021/06/19 00:33:46;;;;;;;13.43;6.85;;;;;;;20.16;100.00;95831.66;1043684;28;20025;-49
2021/06/19 00:34:17;;;;;;;13.48;6.57;;;;;;;20.16;100.00;95829.00;1044912;28;20474;-49
2021/06/19 00:34:48;;;;;;;8.60;6.60;;;;;;;20.16;100.00;95828.19;1048656;28;20089;-49
2021/06/19 00:35:20;;;;;;;11.98;7.30;;;;;;;20.17;100.00;95832.50;1048465;28;20028;-50
2021/06/19 00:35:51;;;;;;;11.82;6.65;;;;;;;20.17;100.00;95827.16;1048463;28;20016;-50
2021/06/19 00:36:22;;;;;;;9.68;6.72;;;;;;;20.10;100.00;95827.03;1044352;28;20388;-49
2021/06/19 00:36:53;;;;;;;11.10;6.72;;;;;;;20.10;100.00;95831.50;1040385;28;20118;-49
2021/06/19 00:37:23;;;;;;;13.77;6.53;;;;;;;20.08;100.00;95836.16;1040385;28;20028;-50
2021/06/19 00:37:54;;;;;;;7.80;6.07;;;;;;;20.08;100.00;95838.84;1044657;28;20016;-50
2021/06/19 00:38:25;;;;;;;12.75;7.22;;;;;;;20.06;100.00;95831.00;1044430;28;20067;-50
2021/06/19 00:38:56;;;;;;;10.63;7.03;;;;;;;20.09;100.00;95837.84;1040639;28;20075;-49
2021/06/19 00:39:28;;;;;;;11.15;6.72;;;;;;;20.05;100.00;95834.69;1040078;28;20032;-49
2021/06/19 00:39:59;;;;;;;12.18;6.90;;;;;;;20.02;100.00;95832.34;1040775;28;20397;-50
2021/06/19 00:40:30;;;;;;;12.48;6.55;;;;;;;20.05;100.00;95829.38;1040799;28;20450;-50
2021/06/19 00:41:01;;;;;;;12.15;6.50;;;;;;;20.06;100.00;95830.19;1040871;28;20028;-50
2021/06/19 00:41:34;;;;;;;10.10;6.50;;;;;;;20.07;100.00;95823.88;1040123;28;20096;-50
2021/06/19 00:42:05;;;;;;;12.30;6.97;;;;;;;20.04;100.00;95826.88;1040861;28;20100;-48
2021/06/19 00:42:36;;;;;;;10.18;6.75;;;;;;;20.02;100.00;95827.03;1040888;28;20434;-50
2021/06/19 00:43:07;;;;;;;11.45;6.35;;;;;;;20.11;100.00;95830.53;1045098;28;20021;-49
2021/06/19 00:43:37;;;;;;;10.15;6.50;;;;;;;20.08;100.00;95823.69;1047717;28;20023;-48
2021/06/19 00:44:27;;;;;;;11.00;7.07;;;;;;;20.09;100.00;95825.38;1048399;28;20071;-50
2021/06/19 00:44:57;;;;;;;8.13;6.72;;;;;;;20.05;100.00;95829.38;1048962;28;20040;-49
2021/06/19 00:45:33;;;;;;;10.88;6.32;;;;;;;20.03;100.00;95828.72;1048864;28;20020;-49
2021/06/19 00:46:03;;;;;;;10.98;6.65;;;;;;;19.98;100.00;95828.38;1048793;28;20414;-50
2021/06/19 00:46:34;;;;;;;11.55;7.03;;;;;;;19.91;100.00;95820.25;1048990;28;20021;-49
2021/06/19 00:47:05;;;;;;;11.18;7.07;;;;;;;19.90;100.00;95825.75;1048614;28;20074;-50
2021/06/19 00:47:38;;;;;;;10.60;6.32;;;;;;;19.88;100.00;95822.44;1048482;28;20363;-51
2021/06/19 00:48:10;;;;;;;10.02;6.18;;;;;;;19.93;100.00;95823.59;1048510;28;20023;-50
2021/06/19 00:48:41;;;;;;;10.82;6.47;;;;;;;20.03;100.00;95823.41;1048614;28;20059;-51
2021/06/19 00:49:12;;;;;;;11.05;6.30;;;;;;;20.04;100.00;95829.53;1048859;28;20020;-49
2021/06/19 00:49:43;;;;;;;9.13;6.43;;;;;;;20.00;100.00;95821.06;1044214;28;20077;-49
2021/06/19 00:50:14;;;;;;;11.13;6.20;;;;;;;20.03;100.00;95819.88;1044415;28;20398;-49
2021/06/19 00:50:45;;;;;;;12.30;6.63;;;;;;;20.00;100.00;95823.72;1044451;28;20072;-50
2021/06/19 00:51:16;;;;;;;9.88;6.32;;;;;;;19.97;100.00;95826.72;1044838;28;20017;-51
2021/06/19 00:51:47;;;;;;;10.45;6.20;;;;;;;19.97;100.00;95827.56;1048493;28;20276;-49
2021/06/19 00:52:17;;;;;;;9.07;6.57;;;;;;;19.96;100.00;95833.03;1048679;28;20486;-49
2021/06/19 00:52:48;;;;;;;8.00;6.25;;;;;;;19.96;100.00;95828.56;1048778;28;20016;-49
2021/06/19 00:53:19;;;;;;;12.15;6.70;;;;;;;19.87;100.00;95832.22;1048822;28;20500;-49
2021/06/19 00:53:50;;;;;;;13.10;6.70;;;;;;;19.85;100.00;95834.22;1043552;28;20025;-50
2021/06/19 00:54:21;;;;;;;11.43;6.75;;;;;;;19.87;100.00;95832.22;1044364;28;20101;-50
2021/06/19 00:54:52;;;;;;;8.63;7.00;;;;;;;19.84;100.00;95829.06;1044362;28;20029;-49
2021/06/19 00:55:23;;;;;;;10.27;6.75;;;;;;;19.86;100.00;95829.72;1041050;28;20018;-52
2021/06/19 00:55:54;;;;;;;11.60;6.43;;;;;;;19.80;100.00;95826.75;1044221;28;20079;-52
2021/06/19 00:56:24;;;;;;;10.80;6.57;;;;;;;19.84;100.00;95819.28;1044273;28;20037;-49
2021/06/19 00:56:56;;;;;;;8.95;7.10;;;;;;;19.89;100.00;95822.25;1036358;28;20018;-49
2021/06/19 00:57:26;;;;;;;8.75;6.50;;;;;;;19.94;100.00;95827.06;1040637;28;20122;-49
2021/06/19 00:57:58;;;;;;;10.90;6.72;;;;;;;19.97;100.00;95821.38;1036043;28;20543;-49
2021/06/19 00:58:30;;;;;;;9.25;6.20;;;;;;;20.00;100.00;95819.22;1036800;28;20021;-50
2021/06/19 00:59:01;;;;;;;11.68;6.13;;;;;;;19.99;100.00;95817.59;1044290;28;20095;-50
2021/06/19 00:59:31;;;;;;;12.07;6.88;;;;;;;19.97;100.00;95813.41;1037104;28;20455;-51
2021/06/19 01:00:04;;;;;;;9.05;6.10;;;;;;;19.96;100.00;95814.44;1040054;28;20024;-50
2021/06/19 01:00:35;;;;;;;11.10;6.30;;;;;;;19.95;100.00;95813.59;1040167;28;20022;-51
2021/06/19 01:01:06;;;;;;;10.50;6.70;;;;;;;19.95;100.00;95816.28;1037316;28;20029;-50
2021/06/19 01:01:37;;;;;;;11.88;6.63;;;;;;;19.94;100.00;95811.13;1040574;28;20423;-50
2021/06/19 01:02:08;;;;;;;10.32;6.95;;;;;;;19.93;100.00;95809.44;1044398;28;20075;-50
2021/06/19 01:02:39;;;;;;;12.07;6.22;;;;;;;19.94;100.00;95808.44;1036434;28;20018;-50
2021/06/19 01:03:10;;;;;;;10.48;5.90;;;;;;;19.95;100.00;95810.94;1040474;28;20013;-51
2021/06/19 01:03:41;;;;;;;11.63;6.35;;;;;;;19.93;100.00;95812.94;1039608;28;20009;-50
2021/06/19 01:04:12;;;;;;;9.88;6.30;;;;;;;19.96;100.00;95812.59;1036630;28;20018;-49
2021/06/19 01:04:43;;;;;;;8.60;5.90;;;;;;;19.96;100.00;95815.25;1044279;28;20108;-49
2021/06/19 01:05:14;;;;;;;10.40;6.13;;;;;;;19.95;100.00;95818.06;1040525;28;20104;-50
2021/06/19 01:05:45;;;;;;;11.27;6.60;;;;;;;19.84;100.00;95808.66;1044607;28;20414;-50
2021/06/19 01:06:16;;;;;;;7.85;5.97;;;;;;;19.90;100.00;95821.25;1048441;28;20104;-50
2021/06/19 01:06:47;;;;;;;7.93;5.88;;;;;;;19.89;100.00;95824.91;1044537;28;20029;-50
2021/06/19 01:07:18;;;;;;;9.13;6.07;;;;;;;19.93;100.00;95826.25;1048491;28;20050;-50
2021/06/19 01:07:48;;;;;;;11.73;6.70;;;;;;;19.87;100.00;95834.88;1044315;28;20017;-50
2021/06/19 01:08:19;;;;;;;9.68;6.90;;;;;;;19.89;100.00;95827.56;1044240;28;20092;-49
2021/06/19 01:08:50;;;;;;;9.88;7.00;;;;;;;19.88;100.00;95825.91;1044232;28;20040;-50
2021/06/19 01:09:21;;;;;;;9.40;6.80;;;;;;;19.89;100.00;95830.22;1044480;28;20013;-49
2021/06/19 01:09:52;;;;;;;10.93;6.68;;;;;;;19.92;100.00;95834.38;1044235;28;20013;-51
2021/06/19 01:10:23;;;;;;;11.07;6.25;;;;;;;19.96;100.00;95833.88;1040462;28;20014;-50
2021/06/19 01:10:54;;;;;;;12.18;7.03;;;;;;;19.96;100.00;95828.56;1044240;28;20537;-52
2021/06/19 01:11:26;;;;;;;10.70;6.50;;;;;;;19.97;100.00;95830.22;1040420;28;20009;-49
2021/06/19 01:11:57;;;;;;;10.65;6.72;;;;;;;19.97;100.00;95832.88;1044589;28;20502;-48
2021/06/19 01:12:28;;;;;;;9.75;6.40;;;;;;;19.96;100.00;95817.91;1044283;28;20005;-52
2021/06/19 01:12:59;;;;;;;11.25;6.50;;;;;;;19.96;100.00;95825.88;1036321;28;20014;-50
2021/06/19 01:13:29;;;;;;;9.15;6.28;;;;;;;19.90;100.00;95810.63;1039678;28;20016;-48
2021/06/19 01:14:01;;;;;;;10.70;6.63;;;;;;;19.91;100.00;95822.06;1036253;28;20034;-50
2021/06/19 01:14:31;;;;;;;10.00;6.53;;;;;;;19.89;100.00;95821.41;1040671;28;20029;-49
2021/06/19 01:15:02;;;;;;;10.15;6.78;;;;;;;19.88;100.00;95822.44;1044219;28;20457;-50
2021/06/19 01:15:33;;;;;;;10.10;6.40;;;;;;;19.90;100.00;95821.25;1044369;28;20505;-50
2021/06/19 01:16:04;;;;;;;10.63;6.35;;;;;;;19.88;100.00;95823.25;1044207;28;20016;-51
2021/06/19 01:16:35;;;;;;;8.45;5.80;;;;;;;19.88;100.00;95828.56;1040706;28;20026;-50
2021/06/19 01:17:06;;;;;;;12.95;6.22;;;;;;;19.83;100.00;95825.59;1048256;28;20008;-50
2021/06/19 01:17:37;;;;;;;12.82;7.05;;;;;;;19.80;100.00;95837.41;1044271;28;20017;-50
2021/06/19 01:18:08;;;;;;;12.35;6.57;;;;;;;19.87;100.00;95845.50;1040228;28;20033;-49
2021/06/19 01:18:38;;;;;;;10.65;6.95;;;;;;;19.85;100.00;95844.84;1044234;28;20021;-50
2021/06/19 01:19:09;;;;;;;14.18;7.47;;;;;;;19.86;100.00;95843.88;1044360;28;20024;-50
2021/06/19 01:19:40;;;;;;;7.18;6.05;;;;;;;19.84;100.00;95837.91;1048395;28;20225;-51
2021/06/19 01:20:14;;;;;;;10.07;7.10;;;;;;;19.83;100.00;95844.19;1048271;28;20029;-49
2021/06/19 01:20:44;;;;;;;9.88;6.70;;;;;;;19.80;100.00;95839.19;1044217;28;20032;-50
2021/06/19 01:21:20;;;;;;;11.60;7.03;;;;;;;19.77;100.00;95837.72;1044135;28;20425;-50
2021/06/19 01:21:53;;;;;;;11.70;6.90;;;;;;;19.75;100.00;95836.25;1044159;28;20025;-50
2021/06/19 01:22:24;;;;;;;10.93;6.35;;;;;;;19.70;100.00;95838.53;1045271;28;20021;-50
2021/06/19 01:22:56;;;;;;;13.43;6.85;;;;;;;19.76;100.00;95845.84;1048537;28;20015;-50
2021/06/19 01:23:27;;;;;;;10.93;6.00;;;;;;;19.77;100.00;95842.22;1048402;28;20474;-49
2021/06/19 01:23:58;;;;;;;9.85;6.53;;;;;;;19.72;100.00;95836.53;1043628;28;20013;-50
2021/06/19 01:24:33;;;;;;;7.90;6.22;;;;;;;19.72;100.00;95842.69;1044289;28;20184;-50
2021/06/19 01:25:05;;;;;;;12.82;6.85;;;;;;;19.68;100.00;95844.00;1044305;28;20024;-50
2021/06/19 01:25:38;;;;;;;10.20;6.68;;;;;;;19.67;100.00;95841.50;1045199;28;20493;-50
2021/06/19 01:26:12;;;;;;;9.25;6.18;;;;;;;19.67;100.00;95845.03;1048284;28;20521;-49
2021/06/19 01:26:44;;;;;;;12.15;5.72;;;;;;;19.66;100.00;95846.00;1048372;28;20020;-50
2021/06/19 01:27:14;;;;;;;15.45;7.18;;;;;;;19.73;100.00;95835.59;1044160;28;20032;-52
2021/06/19 01:27:51;;;;;;;9.90;6.78;;;;;;;19.78;100.00;95844.72;1044234;28;20020;-51
2021/06/19 01:28:22;;;;;;;8.32;6.43;;;;;;;19.77;100.00;95843.03;1045479;28;20013;-50
2021/06/19 01:28:53;;;;;;;6.90;6.20;;;;;;;19.77;100.00;95847.53;1045306;28;20017;-49
2021/06/19 01:29:24;;;;;;;10.07;6.47;;;;;;;19.78;100.00;95849.19;1048223;28;20016;-50
2021/06/19 01:29:56;;;;;;;11.30;6.20;;;;;;;19.78;100.00;95851.84;1048359;28;20016;-50
2021/06/19 01:30:28;;;;;;;8.40;6.20;;;;;;;19.82;100.00;95850.53;1048385;28;20106;-50
2021/06/19 01:30:59;;;;;;;10.32;6.10;;;;;;;19.79;100.00;95854.34;1048318;28;20064;-51
2021/06/19 01:31:32;;;;;;;10.43;6.45;;;;;;;19.79;100.00;95849.00;1048289;28;20066;-48
2021/06/19 01:32:03;;;;;;;12.07;6.25;;;;;;;19.87;100.00;95856.16;1048578;28;20547;-52
2021/06/19 01:32:36;;;;;;;12.57;6.30;;;;;;;19.89;100.00;95850.66;1048680;28;20725;-50
2021/06/19 01:33:08;;;;;;;12.30;6.20;;;;;;;19.91;100.00;95849.50;1048802;28;20581;-49
2021/06/19 01:33:40;;;;;;;12.18;6.50;;;;;;;19.93;100.00;95847.53;1047926;28;20355;-50
2021/06/19 01:34:11;;;;;;;9.40;6.30;;;;;;;19.90;100.00;95850.50;1048501;28;20095;-50
2021/06/19 01:34:42;;;;;;;8.15;6.22;;;;;;;19.91;100.00;95846.00;1048703;28;20013;-48
2021/06/19 01:35:13;;;;;;;14.48;6.68;;;;;;;19.92;100.00;95851.16;1048666;28;20064;-50
2021/06/19 01:35:44;;;;;;;8.45;6.85;;;;;;;19.91;100.00;95844.19;1048364;28;20024;-49
2021/06/19 01:36:16;;;;;;;8.38;6.00;;;;;;;19.93;100.00;95834.22;1048126;28;20017;-50
2021/06/19 01:36:46;;;;;;;9.80;6.32;;;;;;;19.99;100.00;95838.03;1048370;28;20013;-50
2021/06/19 01:37:17;;;;;;;11.10;5.88;;;;;;;20.04;100.00;95838.34;1048241;28;20019;-49
2021/06/19 01:37:51;;;;;;;7.72;6.45;;;;;;;20.04;100.00;95841.00;1048181;28;20012;-49
2021/06/19 01:38:21;;;;;;;8.65;5.97;;;;;;;20.09;100.00;95835.19;1044141;28;20017;-50
2021/06/19 01:38:54;;;;;;;12.85;5.80;;;;;;;20.08;100.00;95839.66;1044741;28;20013;-48
2021/06/19 01:39:24;;;;;;;10.73;6.03;;;;;;;20.10;100.00;95836.81;1048259;28;20005;-50
2021/06/19 01:40:15;;;;;;;10.23;6.00;;;;;;;20.11;100.00;95830.53;1044437;28;20013;-50
2021/06/19 01:40:46;;;;;;;9.35;6.10;;;;;;;20.08;100.00;95838.84;1048328;28;20017;-49
2021/06/19 01:41:18;;;;;;;9.50;6.13;;;;;;;20.12;100.00;95842.81;1048340;28;20104;-51
2021/06/19 01:41:48;;;;;;;10.10;6.60;;;;;;;20.15;100.00;95842.47;1042959;28;20059;-47
2021/06/19 01:42:19;;;;;;;11.90;5.90;;;;;;;20.11;100.00;95839.31;1043970;28;20013;-51
2021/06/19 01:42:50;;;;;;;7.10;5.53;;;;;;;20.09;100.00;95836.00;1044187;28;20526;-49
2021/06/19 01:43:21;;;;;;;7.38;5.95;;;;;;;20.10;100.00;95836.81;1044427;28;20020;-50
2021/06/19 01:44:06;;;;;;;8.80;6.07;;;;;;;20.09;100.00;95838.66;1043444;28;20079;-49
2021/06/19 01:44:37;;;;;;;9.77;6.40;;;;;;;20.09;100.00;95835.19;1040089;28;20021;-51
2021/06/19 01:45:13;;;;;;;9.27;6.00;;;;;;;20.12;100.00;95834.81;1040084;28;20021;-50
2021/06/19 01:45:44;;;;;;;10.40;6.00;;;;;;;20.11;100.00;95835.84;1045846;28;20009;-50
2021/06/19 01:46:15;;;;;;;12.07;6.40;;;;;;;20.14;100.00;95832.81;1044913;28;20021;-50
2021/06/19 01:46:46;;;;;;;7.50;5.70;;;;;;;20.15;100.00;95837.16;1048267;28;20017;-49
2021/06/19 01:47:17;;;;;;;8.27;5.72;;;;;;;20.15;100.00;95826.50;1048400;28;20005;-50
2021/06/19 01:47:48;;;;;;;8.73;6.10;;;;;;;20.13;100.00;95829.34;1044435;28;20017;-51
2021/06/19 01:48:19;;;;;;;10.30;5.90;;;;;;;20.11;100.00;95828.69;1043922;28;20013;-50
2021/06/19 01:48:50;;;;;;;11.23;5.80;;;;;;;20.11;100.00;95827.88;1044111;28;20017;-51
2021/06/19 01:49:20;;;;;;;8.85;6.30;;;;;;;20.11;100.00;95823.38;1044514;28;20070;-50
2021/06/19 01:49:51;;;;;;;8.07;6.15;;;;;;;20.11;100.00;95826.03;1048246;28;20017;-50
2021/06/19 01:50:23;;;;;;;13.55;6.63;;;;;;;20.07;100.00;95819.38;1048393;28;20016;-51
2021/06/19 01:50:54;;;;;;;9.48;6.15;;;;;;;20.06;100.00;95824.88;1048605;28;20005;-50
2021/06/19 01:51:25;;;;;;;10.13;6.45;;;;;;;20.07;100.00;95818.56;1044102;28;20019;-50
2021/06/19 01:51:56;;;;;;;9.65;5.88;;;;;;;20.11;100.00;95817.22;1035919;28;20089;-49
2021/06/19 01:52:26;;;;;;;8.88;5.60;;;;;;;20.13;100.00;95812.56;1035687;28;20020;-50
2021/06/19 01:52:58;;;;;;;9.95;5.88;;;;;;;20.16;100.00;95818.38;1036466;28;20006;-50
2021/06/19 01:53:30;;;;;;;8.73;5.63;;;;;;;20.16;100.00;95820.22;1044220;28;20048;-47
2021/06/19 01:54:01;;;;;;;9.35;5.95;;;;;;;20.14;100.00;95811.53;1048058;28;20502;-50
2021/06/19 01:54:41;;;;;;;9.93;5.95;;;;;;;20.09;100.00;95819.22;1048512;28;20021;-50
2021/06/19 01:55:13;;;;;;;8.70;6.20;;;;;;;20.17;100.00;95821.84;1048342;28;20391;-51
2021/06/19 01:55:45;;;;;;;11.63;5.72;;;;;;;20.18;100.00;95815.53;1048297;28;20036;-51
2021/06/19 01:56:16;;;;;;;8.80;5.38;;;;;;;20.22;100.00;95824.03;1043937;28;20059;-50
2021/06/19 01:56:47;;;;;;;11.57;5.60;;;;;;;20.24;100.00;95817.50;1044020;28;20047;-49
2021/06/19 01:57:18;;;;;;;8.15;5.88;;;;;;;20.26;100.00;95817.34;1044163;28;20398;-51
2021/06/19 01:57:56;;;;;;;7.95;5.35;;;;;;;20.25;100.00;95816.50;1044635;28;20062;-49
2021/06/19 01:58:26;;;;;;;8.07;5.95;;;;;;;20.26;100.00;95820.00;1048405;28;20025;-50
2021/06/19 01:58:58;;;;;;;10.80;5.50;;;;;;;20.29;100.00;95817.84;1048226;28;20027;-49
2021/06/19 01:59:28;;;;;;;8.90;5.70;;;;;;;20.32;100.00;95825.47;1044061;28;20021;-50
2021/06/19 02:00:05;;;;;;;8.50;5.78;;;;;;;20.35;100.00;95825.13;1039912;28;20021;-49
2021/06/19 02:00:36;;;;;;;8.70;5.53;;;;;;;20.35;100.00;95821.66;1041025;28;20024;-49
2021/06/19 02:01:09;;;;;;;9.02;5.85;;;;;;;20.41;100.00;95823.59;1045109;28;20028;-49
2021/06/19 02:01:43;;;;;;;8.35;5.75;;;;;;;20.43;100.00;95828.75;1045410;28;20024;-49
2021/06/19 02:02:14;;;;;;;8.77;5.93;;;;;;;20.44;100.00;95827.75;1048105;28;20017;-50
2021/06/19 02:02:44;;;;;;;7.40;5.38;;;;;;;20.42;100.00;95827.94;1044055;28;20021;-50
2021/06/19 02:03:15;;;;;;;9.07;5.35;;;;;;;20.45;100.00;95821.44;1044665;28;20479;-49
2021/06/19 02:03:47;;;;;;;9.02;5.50;;;;;;;20.41;100.00;95826.28;1047610;28;20017;-52
2021/06/19 02:04:22;;;;;;;8.02;5.22;;;;;;;20.45;100.00;95829.41;1048175;28;20012;-51
2021/06/19 02:04:53;;;;;;;7.90;5.28;;;;;;;20.50;100.00;95835.06;1048518;28;20446;-50
2021/06/19 02:05:24;;;;;;;12.45;5.68;;;;;;;20.49;100.00;95833.38;1048223;28;20016;-49
2021/06/19 02:05:55;;;;;;;7.97;5.32;;;;;;;20.50;100.00;95835.06;1048259;28;20089;-50
2021/06/19 02:06:26;;;;;;;8.23;5.18;;;;;;;20.53;100.00;95832.03;1048146;28;20016;-49
2021/06/19 02:06:57;;;;;;;8.55;5.65;;;;;;;20.56;100.00;95827.19;1048102;28;20020;-51
2021/06/19 02:07:28;;;;;;;8.60;5.50;;;;;;;20.54;100.00;95834.53;1039934;28;20079;-50
2021/06/19 02:08:03;;;;;;;8.00;5.57;;;;;;;20.53;100.00;95832.03;1035889;28;20088;-51
2021/06/19 02:08:34;;;;;;;10.90;5.57;;;;;;;20.50;100.00;95838.53;1036702;28;20515;-49
2021/06/19 02:09:07;;;;;;;11.43;5.63;;;;;;;20.50;100.00;95837.72;1037220;28;20018;-51
2021/06/19 02:09:37;;;;;;;9.73;5.43;;;;;;;20.51;100.00;95842.03;1045249;28;20009;-50
2021/06/19 02:10:09;;;;;;;8.50;5.43;;;;;;;20.55;100.00;95841.53;1048194;28;20013;-50
2021/06/19 02:10:41;;;;;;;8.50;5.22;;;;;;;20.60;100.00;95835.69;1044800;28;20499;-49
2021/06/19 02:11:12;;;;;;;7.38;5.60;;;;;;;20.60;100.00;95843.69;1047995;28;20016;-50
2021/06/19 02:11:43;;;;;;;7.82;5.40;;;;;;;20.62;100.00;95846.19;1048212;28;20025;-49
2021/06/19 02:12:15;;;;;;;10.98;5.70;;;;;;;20.61;100.00;95839.19;1048066;28;20021;-49
2021/06/19 02:12:46;;;;;;;11.05;5.32;;;;;;;20.57;100.00;95846.66;1048537;28;20013;-50
2021/06/19 02:13:17;;;;;;;11.05;5.47;;;;;;;20.59;100.00;95842.84;1048282;28;20080;-50
2021/06/19 02:13:48;;;;;;;8.63;5.00;;;;;;;20.61;100.00;95849.84;1047941;28;20009;-49
2021/06/19 02:14:19;;;;;;;7.60;5.50;;;;;;;20.61;100.00;95845.38;1051568;28;20490;-51
2021/06/19 02:14:50;;;;;;;8.27;5.18;;;;;;;20.64;100.00;95850.31;1052317;28;20509;-50
2021/06/19 02:15:21;;;;;;;12.48;5.93;;;;;;;20.68;100.00;95853.47;1052267;28;20505;-50
2021/06/19 02:15:52;;;;;;;9.50;5.63;;;;;;;20.70;100.00;95846.13;1048090;28;20028;-50
2021/06/19 02:16:23;;;;;;;7.97;5.65;;;;;;;20.71;100.00;95845.16;1048322;28;20028;-50
2021/06/19 02:16:54;;;;;;;8.13;5.32;;;;;;;20.70;100.00;95847.00;1048102;28;20043;-49
2021/06/19 02:17:25;;;;;;;12.38;5.75;;;;;;;20.68;100.00;95846.31;1048314;28;20029;-50
2021/06/19 02:17:56;;;;;;;9.38;5.03;;;;;;;20.68;100.00;95842.81;1048149;28;20046;-46
2021/06/19 02:18:27;;;;;;;9.00;5.63;;;;;;;20.66;100.00;95844.84;1048401;28;20020;-50
2021/06/19 02:18:57;;;;;;;9.02;5.63;;;;;;;20.76;100.00;95848.94;1052352;28;20020;-50
2021/06/19 02:19:28;;;;;;;10.20;5.45;;;;;;;20.78;100.00;95843.47;1048092;28;20107;-50
2021/06/19 02:19:59;;;;;;;7.40;5.13;;;;;;;20.75;100.00;95849.13;1044270;28;20009;-50
2021/06/19 02:20:30;;;;;;;7.10;5.22;;;;;;;20.77;100.00;95847.94;1043914;28;20029;-50
2021/06/19 02:21:01;;;;;;;10.93;5.35;;;;;;;20.76;100.00;95843.63;1044213;28;20231;-50
2021/06/19 02:21:32;;;;;;;10.52;5.40;;;;;;;20.75;100.00;95846.47;1044084;28;20024;-50
2021/06/19 02:22:03;;;;;;;9.93;5.45;;;;;;;20.76;100.00;95851.63;1048453;28;20060;-50
2021/06/19 02:22:34;;;;;;;12.05;5.72;;;;;;;20.74;100.00;95850.97;1048015;28;20024;-50
2021/06/19 02:23:05;;;;;;;9.02;5.18;;;;;;;20.78;100.00;95851.44;1044462;28;20013;-52
2021/06/19 02:23:36;;;;;;;11.07;5.40;;;;;;;20.79;100.00;95850.41;1047542;28;20020;-50
2021/06/19 02:24:07;;;;;;;6.80;5.18;;;;;;;20.79;100.00;95847.75;1044156;28;20029;-49
2021/06/19 02:24:38;;;;;;;10.52;4.90;;;;;;;20.85;100.00;95851.56;1048355;28;20020;-50
2021/06/19 02:25:11;;;;;;;9.48;5.40;;;;;;;20.86;100.00;95851.38;1048269;28;20235;-49